createdAt,value
2019-01-11T00:02:22.676Z,26.47
2019-01-11T00:04:52.046Z,25.73
2019-01-11T00:07:21.520Z,23.87
2019-01-11T00:09:51.037Z,26.73
2019-01-11T00:12:20.436Z,25.20
2019-01-11T00:14:49.984Z,26.83
2019-01-11T00:17:19.448Z,24.83
2019-01-11T00:19:48.932Z,31.77
2019-01-11T00:22:18.343Z,31.00
2019-01-11T00:24:47.733Z,26.77
2019-01-11T00:27:17.287Z,22.80
2019-01-11T00:29:46.777Z,28.47
2019-01-11T00:32:16.232Z,29.10
2019-01-11T00:34:45.607Z,22.13
2019-01-11T00:37:14.996Z,30.97
2019-01-11T00:39:44.393Z,33.10
2019-01-11T00:42:13.770Z,27.10
2019-01-11T00:44:43.188Z,22.97
2019-01-11T00:47:12.740Z,27.03
2019-01-11T00:49:42.110Z,27.10
2019-01-11T00:52:11.528Z,27.60
2019-01-11T00:54:40.996Z,32.33
2019-01-11T00:57:10.360Z,31.03
2019-01-11T00:59:39.732Z,27.83
2019-01-11T01:02:09.120Z,28.60
2019-01-11T01:04:38.524Z,26.63
2019-01-11T01:07:07.902Z,36.50
2019-01-11T01:09:37.276Z,23.60
2019-01-11T01:12:07.300Z,33.13
2019-01-11T01:14:36.876Z,29.07
2019-01-11T01:17:06.605Z,24.03
2019-01-11T01:19:36.048Z,24.70
2019-01-11T01:22:05.550Z,33.10
2019-01-11T01:24:34.934Z,31.23
2019-01-11T01:27:04.347Z,27.13
2019-01-11T01:29:33.873Z,29.40
2019-01-11T01:32:03.262Z,26.03
2019-01-11T01:34:32.779Z,29.50
2019-01-11T01:37:02.252Z,29.87
2019-01-11T01:39:31.602Z,24.63
2019-01-11T01:42:00.972Z,32.07
2019-01-11T01:44:30.366Z,26.53
2019-01-11T01:46:59.718Z,30.73
2019-01-11T01:49:29.107Z,29.93
2019-01-11T01:51:58.671Z,26.83
2019-01-11T01:54:28.117Z,21.33
2019-01-11T01:56:57.593Z,30.07
2019-01-11T01:59:26.976Z,31.33
2019-01-11T02:01:56.330Z,32.87
2019-01-11T02:04:25.785Z,21.97
2019-01-11T02:06:55.214Z,31.00
2019-01-11T02:09:24.634Z,31.07
2019-01-11T02:11:54.069Z,30.23
2019-01-11T02:14:23.476Z,26.80
2019-01-11T02:16:52.943Z,23.07
2019-01-11T02:19:22.346Z,26.77
2019-01-11T02:26:18.239Z,28.60
2019-01-11T02:28:47.674Z,37.20
2019-01-11T02:31:17.049Z,37.87
2019-01-11T02:33:46.478Z,34.17
2019-01-11T02:36:16.009Z,36.63
2019-01-11T02:42:17.804Z,36.47
2019-01-11T02:44:47.252Z,33.40
2019-01-11T02:47:16.746Z,42.83
2019-01-11T02:49:46.297Z,47.97
2019-01-11T02:52:15.738Z,46.53
2019-01-11T02:54:45.116Z,35.67
2019-01-11T02:57:14.538Z,37.10
2019-01-11T02:59:44.009Z,39.63
2019-01-11T03:02:13.456Z,41.37
2019-01-11T03:04:42.945Z,41.10
2019-01-11T03:07:14.718Z,44.67
2019-01-11T03:09:44.283Z,48.17
2019-01-11T03:12:13.756Z,40.67
2019-01-11T03:14:43.157Z,44.20
2019-01-11T03:17:12.638Z,42.33
2019-01-11T03:19:47.793Z,56.60
2019-01-11T03:22:13.053Z,41.27
2019-01-11T03:24:42.609Z,45.40
2019-01-11T03:27:11.996Z,52.43
2019-01-11T03:29:41.482Z,59.40
2019-01-11T03:32:11.025Z,46.70
2019-01-11T03:34:56.681Z,50.70
2019-01-11T03:37:26.177Z,47.50
2019-01-11T03:39:55.600Z,43.87
2019-01-11T03:42:25.093Z,53.20
2019-01-11T03:44:54.489Z,50.80
2019-01-11T03:47:24.004Z,61.30
2019-01-11T03:49:54.878Z,51.57
2019-01-11T03:52:24.663Z,47.40
2019-01-11T03:54:54.116Z,55.53
2019-01-11T03:57:23.678Z,56.60
2019-01-11T03:59:53.181Z,53.10
2019-01-11T04:02:22.655Z,56.47
2019-01-11T04:04:52.185Z,49.67
2019-01-11T04:07:21.732Z,48.97
2019-01-11T04:09:51.128Z,54.57
2019-01-11T04:12:20.633Z,55.17
2019-01-11T04:14:49.985Z,37.50
2019-01-11T04:17:19.403Z,51.77
2019-01-11T04:19:48.871Z,50.93
2019-01-11T04:22:25.879Z,51.10
2019-01-11T04:25:07.363Z,62.33
2019-01-11T04:27:36.743Z,39.63
2019-01-11T04:30:13.905Z,54.10
2019-01-11T04:32:43.355Z,57.97
2019-01-11T04:35:12.887Z,60.90
2019-01-11T04:37:42.425Z,47.83
2019-01-11T04:40:13.403Z,63.80
2019-01-11T04:42:42.856Z,49.53
2019-01-11T04:45:12.332Z,50.83
2019-01-11T04:47:42.123Z,44.90
2019-01-11T04:50:14.634Z,38.77
2019-01-11T04:52:46.105Z,42.40
2019-01-11T04:55:16.183Z,34.40
2019-01-11T04:57:45.569Z,43.73
2019-01-11T05:00:17.967Z,44.70
2019-01-11T05:02:47.614Z,45.97
2019-01-11T05:05:17.219Z,54.17
2019-01-11T05:07:46.752Z,53.83
2019-01-11T05:10:17.957Z,41.27
2019-01-11T05:12:47.478Z,34.23
2019-01-11T05:15:16.924Z,32.83
2019-01-11T05:17:46.362Z,31.77
2019-01-11T05:20:17.492Z,42.93
2019-01-11T05:22:47.407Z,32.83
2019-01-11T05:25:16.832Z,49.27
2019-01-11T05:27:46.329Z,50.90
2019-01-11T05:30:17.949Z,41.73
2019-01-11T05:32:47.395Z,29.03
2019-01-11T05:35:16.951Z,28.10
2019-01-11T05:37:46.399Z,38.20
2019-01-11T05:40:19.618Z,31.67
2019-01-11T05:42:49.136Z,35.30
2019-01-11T05:45:18.969Z,39.33
2019-01-11T05:47:48.441Z,34.10
2019-01-11T05:50:24.097Z,31.37
2019-01-11T05:52:49.833Z,28.83
2019-01-11T05:55:33.527Z,29.63
2019-01-11T05:58:29.274Z,27.10
2019-01-11T06:00:59.157Z,34.97
2019-01-11T06:03:28.820Z,29.80
2019-01-11T06:05:58.434Z,33.73
2019-01-11T06:08:29.184Z,32.63
2019-01-11T06:10:59.127Z,26.40
2019-01-11T06:13:28.779Z,29.83
2019-01-11T06:15:58.410Z,27.13
2019-01-11T06:18:28.067Z,25.60
2019-01-11T06:20:57.674Z,18.53
2019-01-11T06:27:47.882Z,22.87
2019-01-11T06:30:17.468Z,20.17
2019-01-11T06:32:47.168Z,21.27
2019-01-11T06:35:16.811Z,17.33
2019-01-11T06:37:46.244Z,22.33
2019-01-11T06:40:15.752Z,21.40
2019-01-11T06:42:45.332Z,21.13
2019-01-11T06:45:15.006Z,16.30
2019-01-11T06:47:44.814Z,17.10
2019-01-11T06:50:15.656Z,22.03
2019-01-11T06:52:45.325Z,19.53
2019-01-11T06:55:14.960Z,21.97
2019-01-11T06:57:44.794Z,22.97
2019-01-11T07:00:14.870Z,19.77
2019-01-11T07:02:44.482Z,23.50
2019-01-11T07:05:14.438Z,20.67
2019-01-11T07:11:46.329Z,31.37
2019-01-11T07:14:16.159Z,29.77
2019-01-11T07:16:46.112Z,23.37
2019-01-11T07:24:42.870Z,21.07
2019-01-11T07:27:12.579Z,32.47
2019-01-11T07:29:42.647Z,35.40
2019-01-11T07:32:12.195Z,29.60
2019-01-11T07:34:41.787Z,23.17
2019-01-11T07:37:16.616Z,20.73
2019-01-11T07:39:46.243Z,26.90
2019-01-11T07:42:15.807Z,25.63
2019-01-11T07:44:45.443Z,29.17
2019-01-11T07:47:15.154Z,20.73
2019-01-11T07:49:45.510Z,31.87
2019-01-11T07:52:15.131Z,23.57
2019-01-11T07:54:44.763Z,33.07
2019-01-11T07:57:14.501Z,37.43
2019-01-11T07:59:44.033Z,45.07
2019-01-11T08:02:18.943Z,24.60
2019-01-11T08:04:47.510Z,28.93
2019-01-11T08:07:17.140Z,27.67
2019-01-11T08:09:48.455Z,27.60
2019-01-11T08:12:18.773Z,23.87
2019-01-11T08:14:51.373Z,27.50
2019-01-11T08:17:21.203Z,33.23
2019-01-11T08:19:51.069Z,25.50
2019-01-11T08:22:36.582Z,25.20
2019-01-11T08:25:09.511Z,33.47
2019-01-11T08:27:39.754Z,47.47
2019-01-11T08:30:12.662Z,23.17
2019-01-11T08:32:45.255Z,22.07
2019-01-11T08:35:15.080Z,28.40
2019-01-11T08:37:46.822Z,19.83
2019-01-11T08:40:16.911Z,26.33
2019-01-11T08:42:46.715Z,26.27
2019-01-11T08:45:16.545Z,32.03
2019-01-11T08:47:46.446Z,28.10
2019-01-11T08:50:18.323Z,27.27
2019-01-11T08:52:48.187Z,22.03
2019-01-11T08:55:17.962Z,32.60
2019-01-11T08:57:47.795Z,22.90
2019-01-11T09:00:17.627Z,23.87
2019-01-11T09:02:48.431Z,29.53
2019-01-11T09:05:18.238Z,24.17
2019-01-11T09:07:55.115Z,39.53
2019-01-11T09:10:24.989Z,26.60
2019-01-11T09:12:54.710Z,23.77
2019-01-11T09:15:24.404Z,16.43
2019-01-11T09:18:03.857Z,24.43
2019-01-11T09:20:33.690Z,20.97
2019-01-11T09:23:03.301Z,27.07
2019-01-11T09:25:32.904Z,21.77
2019-01-11T09:28:03.834Z,24.03
2019-01-11T09:30:33.698Z,22.63
2019-01-11T09:33:03.462Z,27.00
2019-01-11T09:35:33.241Z,24.37
2019-01-11T09:38:02.985Z,18.23
2019-01-11T09:40:32.718Z,17.77
2019-01-11T09:43:02.526Z,23.27
2019-01-11T09:45:33.646Z,21.83
2019-01-11T09:48:03.179Z,14.57
2019-01-11T09:50:32.876Z,23.10
2019-01-11T09:53:02.578Z,20.77
2019-01-11T09:55:32.236Z,18.43
2019-01-11T09:58:01.853Z,17.47
2019-01-11T10:00:31.376Z,11.83
2019-01-11T10:03:10.209Z,18.27
2019-01-11T10:05:39.883Z,17.20
2019-01-11T10:08:09.498Z,21.30
2019-01-11T10:10:39.036Z,22.17
2019-01-11T10:13:08.557Z,14.80
2019-01-11T10:15:38.304Z,14.63
2019-01-11T10:18:08.116Z,12.30
2019-01-11T10:20:37.785Z,19.87
2019-01-11T10:23:07.438Z,9.30
2019-01-11T10:25:37.045Z,18.10
2019-01-11T10:28:06.743Z,14.60
2019-01-11T10:30:36.603Z,9.27
2019-01-11T10:33:06.274Z,18.30
2019-01-11T10:35:35.859Z,13.17
2019-01-11T10:38:05.515Z,10.13
2019-01-11T10:40:35.207Z,25.27
2019-01-11T10:43:04.879Z,15.10
2019-01-11T10:45:34.591Z,8.80
2019-01-11T10:48:04.279Z,11.33
2019-01-11T10:50:34.031Z,15.93
2019-01-11T10:53:03.679Z,16.67
2019-01-11T10:55:33.293Z,12.57
2019-01-11T10:58:02.928Z,13.60
2019-01-11T11:00:32.563Z,17.17
2019-01-11T11:03:02.306Z,12.33
2019-01-11T11:05:31.993Z,10.77
2019-01-11T11:08:01.762Z,10.17
2019-01-11T11:10:31.408Z,7.47
2019-01-11T11:13:01.063Z,10.40
2019-01-11T11:15:30.656Z,10.13
2019-01-11T11:18:03.416Z,8.77
2019-01-11T11:20:35.210Z,17.53
2019-01-11T11:23:04.911Z,13.67
2019-01-11T11:25:34.558Z,7.83
2019-01-11T11:28:04.856Z,14.80
2019-01-11T11:30:34.437Z,21.90
2019-01-11T11:33:04.723Z,16.37
2019-01-11T11:35:34.297Z,13.67
2019-01-11T11:38:03.957Z,12.40
2019-01-11T11:40:33.628Z,9.77
2019-01-11T11:43:03.284Z,15.07
2019-01-11T11:45:32.919Z,9.30
2019-01-11T11:48:03.790Z,11.13
2019-01-11T11:50:33.865Z,14.57
2019-01-11T11:53:03.989Z,21.30
2019-01-11T11:55:33.560Z,12.67
2019-01-11T11:58:03.162Z,11.27
2019-01-11T12:00:32.840Z,5.67
2019-01-11T12:03:02.371Z,11.13
2019-01-11T12:05:31.900Z,10.57
2019-01-11T12:08:01.508Z,9.33
2019-01-11T12:10:31.180Z,8.87
2019-01-11T12:13:00.876Z,9.40
2019-01-11T12:15:30.466Z,11.37
2019-01-11T12:18:00.078Z,11.90
2019-01-11T12:20:31.303Z,9.53
2019-01-11T12:23:00.920Z,10.90
2019-01-11T12:25:30.555Z,7.13
2019-01-11T12:28:00.192Z,7.67
2019-01-11T12:30:29.758Z,5.07
2019-01-11T12:32:59.418Z,7.13
2019-01-11T12:35:28.976Z,13.70
2019-01-11T12:37:58.514Z,13.83
2019-01-11T12:40:28.012Z,7.93
2019-01-11T12:42:57.640Z,6.80
2019-01-11T12:45:27.046Z,5.77
2019-01-11T12:47:56.642Z,11.27
2019-01-11T12:50:27.500Z,8.00
2019-01-11T12:52:57.271Z,5.27
2019-01-11T12:55:26.872Z,5.03
2019-01-11T12:57:56.515Z,5.20
2019-01-11T13:00:26.169Z,8.83
2019-01-11T13:02:55.792Z,3.23
2019-01-11T13:05:25.476Z,5.70
2019-01-11T13:07:55.096Z,4.77
2019-01-11T13:10:24.800Z,5.87
2019-01-11T13:12:54.486Z,6.73
2019-01-11T13:15:25.087Z,11.37
2019-01-11T13:17:54.770Z,5.60
2019-01-11T13:20:24.842Z,2.63
2019-01-11T13:22:54.660Z,4.83
2019-01-11T13:25:24.331Z,9.80
2019-01-11T13:27:54.098Z,7.30
2019-01-11T13:30:23.638Z,8.87
2019-01-11T13:32:53.145Z,5.90
2019-01-11T13:35:23.513Z,9.57
2019-01-11T13:37:53.197Z,10.67
2019-01-11T13:40:24.859Z,14.30
2019-01-11T13:42:55.084Z,7.70
2019-01-11T13:45:24.604Z,6.27
2019-01-11T13:47:54.279Z,8.87
2019-01-11T13:50:38.320Z,12.63
2019-01-11T13:53:10.009Z,13.23
2019-01-11T13:55:39.709Z,10.67
2019-01-11T13:58:09.308Z,16.30
2019-01-11T14:00:39.088Z,16.07
2019-01-11T14:03:08.751Z,6.80
2019-01-11T14:05:39.022Z,10.57
2019-01-11T14:08:08.595Z,7.00
2019-01-11T14:10:38.205Z,17.03
2019-01-11T14:13:07.917Z,6.40
2019-01-11T14:15:37.462Z,9.90
2019-01-11T14:18:07.122Z,13.93
2019-01-11T14:20:36.838Z,21.23
2019-01-11T14:23:06.452Z,16.67
2019-01-11T14:25:36.011Z,8.63
2019-01-11T14:28:05.962Z,20.17
2019-01-11T14:30:35.573Z,13.77
2019-01-11T14:33:05.276Z,12.70
2019-01-11T14:35:35.022Z,12.37
2019-01-11T14:38:04.690Z,9.57
2019-01-11T14:40:34.350Z,6.83
2019-01-11T14:43:04.056Z,12.57
2019-01-11T14:45:33.877Z,17.50
2019-01-11T14:48:03.456Z,12.50
2019-01-11T14:50:33.184Z,15.47
2019-01-11T14:53:02.902Z,12.53
2019-01-11T14:55:32.502Z,10.30
2019-01-11T14:58:02.088Z,11.00
2019-01-11T15:00:31.696Z,7.47
2019-01-11T15:03:01.373Z,16.17
2019-01-11T15:05:31.216Z,11.77
2019-01-11T15:08:00.855Z,14.07
2019-01-11T15:10:30.562Z,9.03
2019-01-11T15:13:00.179Z,12.40
2019-01-11T15:15:29.907Z,8.57
2019-01-11T15:18:01.067Z,15.33
2019-01-11T15:20:30.726Z,13.77
2019-01-11T15:23:00.488Z,4.20
2019-01-11T15:25:30.286Z,10.83
2019-01-11T15:28:00.012Z,10.83
2019-01-11T15:30:29.735Z,3.33
2019-01-11T15:32:59.248Z,12.70
2019-01-11T15:35:28.892Z,14.57
2019-01-11T15:37:58.661Z,10.37
2019-01-11T15:40:36.249Z,11.80
2019-01-11T15:43:01.536Z,8.87
2019-01-11T15:45:31.225Z,12.83
2019-01-11T15:48:01.229Z,10.40
2019-01-11T15:50:43.823Z,9.63
2019-01-11T15:53:13.611Z,8.43
2019-01-11T15:55:43.168Z,5.87
2019-01-11T15:58:12.799Z,8.83
2019-01-11T16:00:44.683Z,8.43
2019-01-11T16:03:14.668Z,6.37
2019-01-11T16:05:44.231Z,12.53
2019-01-11T16:08:14.091Z,11.60
2019-01-11T16:11:07.733Z,10.20
2019-01-11T16:14:10.625Z,5.10
2019-01-11T16:16:56.534Z,10.70
2019-01-11T16:19:26.231Z,7.63
2019-01-11T16:21:55.881Z,9.73
2019-01-11T16:24:25.571Z,7.57
2019-01-11T16:26:55.315Z,14.07
2019-01-11T16:29:25.097Z,8.43
2019-01-11T16:31:54.876Z,8.97
2019-01-11T16:34:24.543Z,12.87
2019-01-11T16:36:54.148Z,10.40
2019-01-11T16:39:23.857Z,12.73
2019-01-11T16:41:53.463Z,9.33
2019-01-11T16:44:23.185Z,10.30
2019-01-11T16:46:53.265Z,13.40
2019-01-11T16:49:31.678Z,12.43
2019-01-11T16:52:01.399Z,7.20
2019-01-11T16:54:31.002Z,10.00
2019-01-11T16:57:00.635Z,8.40
2019-01-11T16:59:30.312Z,6.20
2019-01-11T17:01:59.894Z,7.97
2019-01-11T17:04:29.591Z,8.97
2019-01-11T17:06:59.226Z,7.07
2019-01-11T17:09:28.739Z,10.20
2019-01-11T17:11:58.580Z,8.70
2019-01-11T17:14:28.313Z,8.37
2019-01-11T17:16:57.865Z,10.07
2019-01-11T17:19:27.863Z,15.83
2019-01-11T17:21:57.378Z,11.60
2019-01-11T17:24:27.044Z,13.10
2019-01-11T17:26:56.868Z,9.07
2019-01-11T17:29:26.746Z,13.83
2019-01-11T17:31:58.098Z,16.27
2019-01-11T17:34:27.770Z,14.67
2019-01-11T17:36:57.630Z,13.83
2019-01-11T17:39:27.519Z,13.07
2019-01-11T17:41:57.315Z,9.43
2019-01-11T17:44:26.880Z,13.00
2019-01-11T17:46:56.730Z,16.37
2019-01-11T17:49:26.524Z,13.37
2019-01-11T17:51:56.314Z,16.83
2019-01-11T17:54:26.269Z,16.73
2019-01-11T17:56:55.869Z,12.40
2019-01-11T17:59:25.508Z,18.20
2019-01-11T18:01:55.465Z,14.43
2019-01-11T18:04:25.236Z,16.50
2019-01-11T18:06:54.895Z,10.67
2019-01-11T18:09:24.837Z,14.50
2019-01-11T18:11:54.346Z,6.40
2019-01-11T18:14:24.384Z,8.83
2019-01-11T18:16:54.165Z,14.87
2019-01-11T18:19:23.862Z,10.63
2019-01-11T18:21:53.498Z,11.40
2019-01-11T18:24:23.235Z,19.50
2019-01-11T18:26:53.348Z,11.00
2019-01-11T18:29:32.179Z,36.37
2019-01-11T18:32:02.040Z,11.10
2019-01-11T18:34:31.790Z,11.33
2019-01-11T18:37:01.492Z,9.23
2019-01-11T18:39:31.325Z,8.10
2019-01-11T18:42:01.505Z,8.53
2019-01-11T18:44:31.577Z,20.72
2019-01-11T18:47:03.109Z,9.60
2019-01-11T18:49:32.944Z,8.47
2019-01-11T18:52:02.753Z,9.77
2019-01-11T18:54:32.596Z,8.87
2019-01-11T18:57:02.283Z,8.07
2019-01-11T18:59:32.328Z,14.10
2019-01-11T19:02:02.186Z,12.93
2019-01-11T19:04:31.793Z,5.23
2019-01-11T19:07:01.267Z,16.43
2019-01-11T19:09:30.865Z,15.17
2019-01-11T19:12:00.429Z,15.47
2019-01-11T19:14:30.171Z,13.53
2019-01-11T19:16:59.847Z,19.60
2019-01-11T19:19:29.547Z,12.37
2019-01-11T19:21:59.370Z,9.87
2019-01-11T19:24:29.086Z,10.27
2019-01-11T19:26:59.043Z,10.07
2019-01-11T19:29:49.199Z,13.80
2019-01-11T19:32:18.895Z,14.10
2019-01-11T19:34:48.707Z,9.97
2019-01-11T19:37:18.413Z,9.43
2019-01-11T19:39:48.248Z,14.63
2019-01-11T19:42:19.737Z,9.67
2019-01-11T19:44:49.483Z,8.57
2019-01-11T19:47:19.288Z,10.73
2019-01-11T19:49:48.892Z,9.00
2019-01-11T19:52:18.617Z,14.60
2019-01-11T19:54:48.376Z,7.30
2019-01-11T19:57:18.004Z,12.57
2019-01-11T19:59:47.813Z,24.77
2019-01-11T20:02:18.972Z,11.03
2019-01-11T20:04:48.725Z,7.73
2019-01-11T20:07:18.594Z,6.67
2019-01-11T20:09:48.345Z,7.73
2019-01-11T20:12:18.242Z,25.50
2019-01-11T20:14:47.896Z,5.00
2019-01-11T20:17:17.605Z,13.73
2019-01-11T20:19:47.303Z,6.47
2019-01-11T20:22:16.970Z,9.37
2019-01-11T20:24:46.558Z,7.27
2019-01-11T20:27:16.266Z,6.67
2019-01-11T20:29:45.900Z,10.00
2019-01-11T20:32:15.624Z,8.93
2019-01-11T20:34:45.326Z,13.00
2019-01-11T20:37:37.705Z,9.60
2019-01-11T20:40:09.810Z,8.40
2019-01-11T20:42:39.520Z,9.03
2019-01-11T20:45:11.295Z,11.47
2019-01-11T20:47:40.965Z,7.20
2019-01-11T20:50:12.902Z,15.60
2019-01-11T20:52:42.525Z,47.47
2019-01-11T20:55:12.068Z,12.97
2019-01-11T21:04:46.217Z,11.33
2019-01-11T21:07:15.548Z,12.60
2019-01-11T21:09:45.045Z,12.40
2019-01-11T21:12:14.516Z,12.23
2019-01-11T21:14:44.043Z,7.10
2019-01-11T21:17:13.915Z,17.80
2019-01-11T21:19:43.409Z,12.63
2019-01-11T21:22:12.957Z,12.40
2019-01-11T21:24:42.492Z,7.97
2019-01-11T21:27:12.147Z,8.83
2019-01-11T21:29:41.483Z,10.40
2019-01-11T21:32:11.027Z,9.77
2019-01-11T21:34:40.520Z,11.03
2019-01-11T21:37:09.894Z,8.70
2019-01-11T21:39:39.555Z,11.80
2019-01-11T21:42:09.085Z,7.20
2019-01-11T21:44:38.577Z,13.37
2019-01-11T21:47:07.994Z,6.93
2019-01-11T21:49:37.638Z,9.57
2019-01-11T21:52:07.570Z,14.53
2019-01-11T21:54:37.021Z,12.60
2019-01-11T21:57:06.748Z,12.00
2019-01-11T21:59:36.207Z,14.00
2019-01-11T22:02:05.723Z,15.77
2019-01-11T22:04:35.388Z,26.87
2019-01-11T22:07:05.451Z,8.87
2019-01-11T22:09:34.923Z,8.63
2019-01-11T22:12:04.711Z,14.60
2019-01-11T22:14:34.355Z,6.70
2019-01-11T22:17:03.891Z,5.43
2019-01-11T22:19:33.494Z,8.60
2019-01-11T22:22:03.073Z,11.80
2019-01-11T22:24:32.671Z,5.03
2019-01-11T22:33:18.091Z,11.00
2019-01-11T22:35:47.533Z,10.80
2019-01-11T22:38:17.020Z,14.67
2019-01-11T22:40:46.830Z,10.90
2019-01-11T22:43:16.656Z,9.60
2019-01-11T22:45:46.320Z,9.70
2019-01-11T22:48:15.904Z,10.63
2019-01-11T22:50:45.567Z,7.60
2019-01-11T22:53:15.097Z,7.50
2019-01-11T22:55:44.682Z,8.33
2019-01-11T23:02:17.606Z,10.20
2019-01-11T23:04:47.880Z,14.27
2019-01-11T23:07:30.395Z,9.20
2019-01-11T23:10:28.011Z,10.57
2019-01-11T23:13:04.110Z,7.33
2019-01-11T23:15:39.961Z,6.27
2019-01-11T23:18:15.884Z,8.17
2019-01-11T23:20:46.716Z,7.07
2019-01-11T23:23:16.488Z,11.17
2019-01-11T23:25:46.105Z,5.00
2019-01-11T23:28:15.831Z,6.60
2019-01-11T23:30:45.398Z,12.23
2019-01-11T23:33:14.958Z,7.03
2019-01-11T23:35:44.586Z,5.83
2019-01-11T23:38:14.173Z,15.27
2019-01-11T23:40:43.785Z,5.27
2019-01-11T23:43:13.350Z,11.50
2019-01-11T23:45:42.910Z,14.80
2019-01-11T23:48:12.469Z,6.50
2019-01-11T23:50:42.100Z,5.67
2019-01-11T23:53:11.781Z,14.97
2019-01-11T23:55:41.370Z,5.47
2019-01-11T23:58:10.954Z,8.07
